Prairie Center, Illinois
Current Conditions -  °F | °C
As of 10:15 AM on Friday 19 Dec 2014 (Local Time) from KVYS Reporting Station
Overcast Overcast  
Wind Chill: 28°   Ceiling: 2300
Heat Index: 28°   Visibility: 10mi
Dew Point: 24°   Wind: 0mph
Humidity: 84%   Direction: NA
Pressure: 30.35"   Gusts: NA
Location:  41.4349°N, 88.8687°W
Report Text: KVYS 191615Z AUTO 00000KT 10SM OVC023 M02/M05 A3035 RMK AO2 T10221046
Loading
Personal Weather Stations






























Interactive Weather Map New forecast layout! Learn more

10-Day Weather Forecast

Advertisements
Track Severe Weather on mobile